Time;durP1;ratioP1;P1;durP2;ratioP2;P2;SDS_P1;SDS_P2;PMS_P1;PMS_P2;Temp;Humidity;BMP_temperature;BMP_pressure;BME280_temperature;BME280_humidity;BME280_pressure;Samples;Min_cycle;Max_cycle;Signal;HPM_P1;HPM_P2
2022/12/04 00:01:09;;;;;;;110.75;40.92;;;-0.70;99.90;;;;;;4974795;28;20594;-76
2022/12/04 00:03:36;;;;;;;117.10;47.03;;;-0.70;99.90;;;;;;4972353;28;20483;-76
2022/12/04 00:06:04;;;;;;;104.10;41.03;;;-0.70;99.90;;;;;;4964112;28;20064;-77
2022/12/04 00:08:31;;;;;;;117.25;43.65;;;-0.80;99.90;;;;;;4999144;28;20045;-76
2022/12/04 00:10:58;;;;;;;104.55;41.70;;;-0.80;99.90;;;;;;4974108;28;20049;-79
2022/12/04 00:13:25;;;;;;;110.03;38.25;;;-0.80;99.90;;;;;;4957022;28;20043;-76
2022/12/04 00:15:52;;;;;;;103.05;39.10;;;-0.80;99.90;;;;;;4985552;28;20084;-79
2022/12/04 00:18:19;;;;;;;113.03;42.20;;;-0.80;99.90;;;;;;4972566;28;20134;-77
2022/12/04 00:20:46;;;;;;;119.55;41.35;;;-0.80;99.90;;;;;;4988646;28;20037;-80
2022/12/04 00:23:13;;;;;;;113.78;38.50;;;-0.70;99.90;;;;;;4977877;28;20057;-78
2022/12/04 00:25:40;;;;;;;117.32;43.00;;;-0.80;99.90;;;;;;4988693;28;20049;-76
2022/12/04 00:28:07;;;;;;;122.30;41.35;;;-0.80;99.90;;;;;;4969624;28;20046;-78
2022/12/04 00:30:39;;;;;;;123.53;42.55;;;-0.80;99.90;;;;;;4981993;28;20065;-76
2022/12/04 00:33:05;;;;;;;119.60;43.47;;;-0.90;99.90;;;;;;4976133;28;20141;-76
2022/12/04 00:35:32;;;;;;;132.43;44.55;;;-0.90;99.90;;;;;;4988969;28;20056;-77
2022/12/04 00:37:58;;;;;;;122.30;42.10;;;-0.80;99.90;;;;;;4974142;28;20050;-78
2022/12/04 00:40:25;;;;;;;128.00;47.80;;;-0.80;99.90;;;;;;4958916;28;20664;-78
2022/12/04 00:42:52;;;;;;;127.43;44.17;;;-0.80;99.90;;;;;;4984965;28;20042;-76
2022/12/04 00:45:18;;;;;;;129.13;44.50;;;-0.90;99.90;;;;;;4971567;28;20054;-80
2022/12/04 00:47:45;;;;;;;124.57;43.60;;;-0.80;99.90;;;;;;4973075;28;20472;-80
2022/12/04 00:50:15;;;;;;;132.05;43.17;;;-0.90;99.90;;;;;;4961681;28;20132;-76
2022/12/04 00:52:41;;;;;;;133.00;43.78;;;-0.90;99.90;;;;;;4992966;28;20042;-80
2022/12/04 00:55:08;;;;;;;123.07;41.35;;;-0.90;99.90;;;;;;4977577;28;20034;-77
2022/12/04 00:57:35;;;;;;;119.05;44.00;;;-0.90;99.90;;;;;;4974588;28;20042;-76
2022/12/04 01:00:03;;;;;;;127.35;42.08;;;-0.90;99.90;;;;;;4990574;28;20030;-77
2022/12/04 01:02:30;;;;;;;124.97;44.08;;;-0.90;99.90;;;;;;4996933;28;20042;-76
2022/12/04 01:04:59;;;;;;;128.35;42.17;;;-0.90;99.90;;;;;;4977765;28;20042;-75
2022/12/04 01:07:25;;;;;;;113.22;40.53;;;-0.90;99.90;;;;;;4989192;28;20039;-77
2022/12/04 01:09:56;;;;;;;117.72;40.97;;;-0.90;99.90;;;;;;4978896;28;20042;-75
2022/12/04 01:12:23;;;;;;;126.88;43.03;;;-0.80;99.90;;;;;;4984837;28;20551;-75
2022/12/04 01:14:49;;;;;;;116.93;43.08;;;-0.80;99.90;;;;;;4980507;28;20042;-76
2022/12/04 01:17:16;;;;;;;123.72;42.47;;;-0.70;99.90;;;;;;4971578;28;20042;-75
2022/12/04 01:19:43;;;;;;;119.05;41.50;;;-0.80;99.90;;;;;;4976925;28;20046;-75
2022/12/04 01:22:09;;;;;;;100.65;38.30;;;-0.80;99.90;;;;;;4992435;28;20062;-75
2022/12/04 01:24:36;;;;;;;115.97;43.47;;;-0.80;99.90;;;;;;4975284;28;20038;-77
2022/12/04 01:27:03;;;;;;;109.13;38.25;;;-0.80;99.90;;;;;;4978103;28;20052;-76
2022/12/04 01:29:29;;;;;;;107.20;38.75;;;-0.90;99.90;;;;;;4979215;28;20121;-76
2022/12/04 01:31:56;;;;;;;114.43;38.45;;;-0.80;99.90;;;;;;4979614;28;20038;-78
2022/12/04 01:34:24;;;;;;;110.85;42.00;;;-0.80;99.90;;;;;;4978585;28;20569;-75
2022/12/04 01:36:51;;;;;;;113.35;40.83;;;-0.80;99.90;;;;;;4969379;28;20042;-78
2022/12/04 01:39:18;;;;;;;105.50;40.33;;;-0.80;99.90;;;;;;4976023;28;20038;-75
2022/12/04 01:41:45;;;;;;;105.20;36.00;;;-0.80;99.90;;;;;;4980288;28;20046;-76
2022/12/04 01:44:21;;;;;;;111.57;38.17;;;-0.70;99.90;;;;;;5001240;28;20081;-76
2022/12/04 01:46:53;;;;;;;100.75;37.10;;;-0.70;99.90;;;;;;4976318;28;20053;-76
2022/12/04 01:49:23;;;;;;;102.80;40.45;;;-0.70;99.90;;;;;;4964525;28;20076;-75
2022/12/04 01:51:57;;;;;;;95.00;37.28;;;-0.60;99.90;;;;;;4994961;28;20038;-76
2022/12/04 01:54:30;;;;;;;98.88;36.33;;;-0.60;99.90;;;;;;4987904;28;20050;-75
2022/12/04 01:57:17;;;;;;;98.80;38.00;;;-0.70;99.90;;;;;;4975227;28;20034;-76
2022/12/04 01:59:49;;;;;;;94.40;35.05;;;-0.80;99.90;;;;;;4968433;28;20742;-75
2022/12/04 02:02:21;;;;;;;91.25;35.30;;;-0.70;99.90;;;;;;4955338;28;20084;-76
2022/12/04 02:04:48;;;;;;;99.43;35.75;;;-0.80;99.90;;;;;;4981892;28;20046;-77
2022/12/04 02:07:15;;;;;;;87.68;33.35;;;-0.70;99.90;;;;;;4985459;28;20443;-76
2022/12/04 02:09:42;;;;;;;79.18;32.72;;;-0.70;99.90;;;;;;4968657;28;20042;-77
2022/12/04 02:12:09;;;;;;;84.55;34.53;;;-0.70;99.90;;;;;;4983808;28;20513;-77
2022/12/04 02:14:54;;;;;;;88.38;36.63;;;-0.70;99.90;;;;;;4947392;28;20080;-75
2022/12/04 02:17:34;;;;;;;76.10;31.40;;;-0.70;99.90;;;;;;4981263;28;20038;-76
2022/12/04 02:20:04;;;;;;;82.50;32.88;;;-0.70;99.90;;;;;;4983762;28;20050;-77
2022/12/04 02:23:00;;;;;;;82.13;30.75;;;-0.70;99.90;;;;;;4985746;28;20713;-76
2022/12/04 02:25:42;;;;;;;85.90;32.38;;;-0.70;99.90;;;;;;4952205;28;20473;-76
2022/12/04 02:28:24;;;;;;;79.07;33.72;;;-0.70;99.90;;;;;;4998084;28;20042;-75
2022/12/04 02:30:58;;;;;;;80.55;32.63;;;-0.70;99.90;;;;;;4971097;28;20053;-75
2022/12/04 02:33:30;;;;;;;88.38;31.60;;;-0.70;99.90;;;;;;4978914;28;20460;-74
2022/12/04 02:36:03;;;;;;;92.82;35.38;;;-0.60;99.90;;;;;;4965954;28;20043;-74
2022/12/04 02:38:41;;;;;;;91.05;34.05;;;-0.70;99.90;;;;;;4951616;28;20053;-75
2022/12/04 02:41:48;;;;;;;88.90;34.63;;;-0.60;99.90;;;;;;4996938;28;20658;-75
2022/12/04 02:44:57;;;;;;;80.97;33.67;;;-0.60;99.90;;;;;;4992791;28;20141;-75
2022/12/04 02:47:25;;;;;;;87.28;33.47;;;-0.60;99.90;;;;;;4934943;28;20422;-75
2022/12/04 02:50:00;;;;;;;84.03;34.10;;;-0.60;99.90;;;;;;4967734;28;20045;-75
2022/12/04 02:52:33;;;;;;;97.38;35.13;;;-0.60;99.90;;;;;;4979781;28;20108;-75
2022/12/04 02:55:15;;;;;;;73.70;30.98;;;-0.60;99.90;;;;;;4972879;28;20044;-74
2022/12/04 02:57:45;;;;;;;79.95;31.85;;;-0.60;99.90;;;;;;4977223;28;20046;-75
2022/12/04 03:00:13;;;;;;;76.40;31.98;;;-0.60;99.90;;;;;;4980823;28;20049;-75
2022/12/04 03:03:05;;;;;;;78.47;32.08;;;-0.60;99.90;;;;;;4976493;28;20046;-74
2022/12/04 03:05:48;;;;;;;80.72;31.98;;;-0.70;99.90;;;;;;4969437;28;20066;-75
2022/12/04 03:08:19;;;;;;;75.95;29.60;;;-0.60;99.90;;;;;;4958567;28;20482;-77
2022/12/04 03:10:51;;;;;;;71.30;27.83;;;-0.60;99.90;;;;;;4996525;28;20100;-77
2022/12/04 03:13:23;;;;;;;75.30;30.63;;;-0.60;99.90;;;;;;4996894;28;20148;-75
2022/12/04 03:15:55;;;;;;;56.83;26.23;;;-0.50;99.90;;;;;;4993249;28;20668;-75
2022/12/04 03:18:26;;;;;;;55.00;25.55;;;-0.50;99.90;;;;;;4995266;28;20048;-75
2022/12/04 03:21:00;;;;;;;63.53;24.38;;;-0.50;99.90;;;;;;4975707;28;20038;-75
2022/12/04 03:23:36;;;;;;;66.47;28.50;;;-0.50;99.90;;;;;;4960821;28;20504;-75
2022/12/04 03:26:11;;;;;;;64.20;27.70;;;-0.50;99.90;;;;;;4991548;28;20125;-75
2022/12/04 03:28:44;;;;;;;70.50;28.40;;;-0.40;99.90;;;;;;4955156;28;20081;-74
2022/12/04 03:31:11;;;;;;;67.45;27.20;;;-0.40;99.90;;;;;;4994482;28;20052;-75
2022/12/04 03:33:45;;;;;;;71.90;28.80;;;-0.50;99.90;;;;;;4989554;28;20038;-75
2022/12/04 03:36:17;;;;;;;54.53;24.75;;;-0.50;99.90;;;;;;4988722;28;20041;-75
2022/12/04 03:39:04;;;;;;;64.63;28.10;;;-0.50;99.90;;;;;;4980085;28;20411;-75
2022/12/04 03:41:57;;;;;;;60.75;27.17;;;-0.50;99.90;;;;;;4973107;28;20408;-75
2022/12/04 03:44:23;;;;;;;58.22;24.80;;;-0.50;99.90;;;;;;4978978;28;20048;-75
2022/12/04 03:46:56;;;;;;;62.45;26.95;;;-0.50;99.90;;;;;;4995291;28;20042;-75
2022/12/04 03:49:39;;;;;;;57.35;26.40;;;-0.50;99.90;;;;;;4982279;28;20073;-76
2022/12/04 03:52:26;;;;;;;60.63;24.17;;;-0.50;99.90;;;;;;4974248;28;20073;-75
2022/12/04 03:55:00;;;;;;;56.85;22.83;;;-0.40;99.90;;;;;;4981792;28;20129;-75
2022/12/04 03:57:32;;;;;;;68.80;28.98;;;-0.40;99.90;;;;;;4969353;28;20044;-75
2022/12/04 04:00:05;;;;;;;59.08;26.13;;;-0.40;99.90;;;;;;4997058;28;20052;-75
2022/12/04 04:02:36;;;;;;;46.05;22.55;;;-0.40;99.90;;;;;;5000522;28;20042;-75
2022/12/04 04:05:06;;;;;;;59.17;25.20;;;-0.40;99.90;;;;;;4971101;28;20050;-75
2022/12/04 04:07:48;;;;;;;58.83;25.05;;;-0.40;99.90;;;;;;4998207;28;20042;-75
2022/12/04 04:10:18;;;;;;;67.07;27.17;;;-0.30;99.90;;;;;;4998100;28;20531;-75
2022/12/04 04:24:41;;;;;;;70.00;33.75;;;-0.40;99.90;;;;;;4999677;28;20042;-75
2022/12/04 04:27:08;;;;;;;41.15;17.70;;;-0.30;99.90;;;;;;4982371;28;20418;-75
2022/12/04 04:29:35;;;;;;;63.42;29.45;;;-0.40;99.90;;;;;;4989726;28;20064;-74
2022/12/04 04:32:26;;;;;;;58.83;28.85;;;-0.40;99.90;;;;;;4998026;28;20030;-75
2022/12/04 04:35:24;;;;;;;48.05;22.95;;;-0.30;99.90;;;;;;4969971;28;20035;-75
2022/12/04 04:38:16;;;;;;;49.92;23.63;;;-0.30;99.90;;;;;;4976655;28;20042;-75
2022/12/04 04:40:52;;;;;;;53.13;24.50;;;-0.30;99.90;;;;;;4981858;28;20052;-75
2022/12/04 04:43:30;;;;;;;53.97;24.23;;;-0.20;99.90;;;;;;4975191;28;20161;-75
2022/12/04 04:46:19;;;;;;;57.20;26.80;;;-0.20;99.90;;;;;;4984637;28;20039;-75
2022/12/04 04:48:51;;;;;;;56.70;25.38;;;-0.20;99.90;;;;;;4973523;28;20122;-75
2022/12/04 04:51:19;;;;;;;58.08;24.73;;;-0.20;99.90;;;;;;4984306;28;20233;-75
2022/12/04 04:53:50;;;;;;;51.60;22.52;;;-0.20;99.90;;;;;;4989861;28;20049;-75
2022/12/04 04:56:17;;;;;;;51.10;21.10;;;-0.20;99.90;;;;;;4990337;28;20048;-75
2022/12/04 04:58:44;;;;;;;47.25;22.65;;;-0.20;99.90;;;;;;4989489;28;20042;-75
2022/12/04 05:01:17;;;;;;;41.55;19.95;;;-0.20;99.90;;;;;;4986473;28;20030;-75
2022/12/04 05:03:44;;;;;;;50.90;23.85;;;-0.20;99.90;;;;;;4989020;28;20042;-75
2022/12/04 05:06:11;;;;;;;51.78;23.48;;;-0.20;99.90;;;;;;4990684;28;20052;-76
2022/12/04 05:08:38;;;;;;;48.03;20.55;;;-0.10;99.90;;;;;;4976115;28;20058;-75
2022/12/04 05:11:09;;;;;;;35.58;17.45;;;-0.10;99.90;;;;;;4980380;28;20083;-75
2022/12/04 05:13:36;;;;;;;38.75;20.15;;;-0.20;99.90;;;;;;4977028;28;20042;-75
2022/12/04 05:16:05;;;;;;;49.95;22.00;;;-0.10;99.90;;;;;;4986507;28;20039;-75
2022/12/04 05:18:34;;;;;;;50.45;23.48;;;-0.10;99.90;;;;;;4996703;28;20129;-75
2022/12/04 05:21:14;;;;;;;54.20;24.02;;;-0.10;99.90;;;;;;4968859;28;20492;-74
2022/12/04 05:23:41;;;;;;;84.18;35.58;;;-0.10;99.90;;;;;;4985365;28;20167;-75
2022/12/04 05:26:08;;;;;;;66.38;26.70;;;-0.10;99.90;;;;;;4980927;28;20066;-75
2022/12/04 05:28:35;;;;;;;65.45;26.98;;;0.00;99.90;;;;;;4993075;28;20133;-75
2022/12/04 05:31:02;;;;;;;78.47;31.65;;;-0.10;99.90;;;;;;4973687;28;20043;-75
2022/12/04 05:33:29;;;;;;;47.90;23.42;;;-0.10;99.90;;;;;;4979088;28;20050;-76
2022/12/04 05:36:05;;;;;;;36.95;17.33;;;-0.10;99.90;;;;;;4979016;28;20039;-75
2022/12/04 05:38:32;;;;;;;64.93;29.65;;;-0.10;99.90;;;;;;4987255;28;20038;-75
2022/12/04 05:41:00;;;;;;;59.83;27.80;;;-0.10;99.90;;;;;;4989545;28;20484;-76
2022/12/04 05:43:27;;;;;;;57.22;24.98;;;-0.10;99.90;;;;;;4996047;28;20048;-76
2022/12/04 05:45:53;;;;;;;35.42;19.45;;;-0.10;99.90;;;;;;4982067;28;20457;-75
2022/12/04 05:48:20;;;;;;;53.50;23.77;;;-0.10;99.90;;;;;;4989756;28;22103;-75
2022/12/04 05:50:47;;;;;;;36.20;19.00;;;-0.10;99.90;;;;;;4998024;28;20464;-75
2022/12/04 05:53:14;;;;;;;45.08;21.77;;;-0.10;99.90;;;;;;4980520;28;20046;-76
2022/12/04 05:55:40;;;;;;;49.15;23.55;;;-0.10;99.90;;;;;;4989897;28;20045;-75
2022/12/04 05:58:07;;;;;;;49.17;26.00;;;-0.10;99.90;;;;;;4989023;28;20056;-75
2022/12/04 06:00:34;;;;;;;52.10;23.27;;;-0.10;99.90;;;;;;4975791;28;20050;-75
2022/12/04 06:03:01;;;;;;;54.25;25.92;;;-0.10;99.90;;;;;;4977877;28;20050;-74
2022/12/04 06:05:27;;;;;;;54.72;25.92;;;0.10;99.90;;;;;;4983769;28;20069;-75
2022/12/04 06:07:54;;;;;;;57.08;25.33;;;0.10;99.90;;;;;;4984926;28;20400;-75
2022/12/04 06:10:21;;;;;;;49.83;23.05;;;0.00;99.90;;;;;;4985829;28;20052;-75
2022/12/04 06:12:48;;;;;;;48.85;22.67;;;0.00;99.90;;;;;;4998343;28;20102;-74
2022/12/04 06:15:14;;;;;;;50.58;23.25;;;0.00;99.90;;;;;;4992355;28;20535;-75
2022/12/04 06:17:41;;;;;;;49.55;22.23;;;0.00;99.90;;;;;;4980595;28;20039;-75
2022/12/04 06:20:08;;;;;;;46.35;18.95;;;0.00;99.90;;;;;;4982832;28;20061;-74
2022/12/04 06:22:37;;;;;;;52.17;23.50;;;-0.10;99.90;;;;;;4984479;28;20396;-74
2022/12/04 06:25:05;;;;;;;48.65;22.58;;;-0.10;99.90;;;;;;4979965;28;20074;-74
2022/12/04 06:27:32;;;;;;;50.50;23.85;;;0.00;99.90;;;;;;4962152;28;20050;-74
2022/12/04 06:29:59;;;;;;;34.33;18.10;;;0.00;99.90;;;;;;4965060;28;20073;-75
2022/12/04 06:32:26;;;;;;;49.50;22.75;;;0.00;99.90;;;;;;4986555;28;20053;-75
2022/12/04 06:34:54;;;;;;;53.10;24.10;;;0.00;99.90;;;;;;4987987;28;20046;-75
2022/12/04 06:37:22;;;;;;;47.33;23.35;;;0.00;99.90;;;;;;4980182;28;20240;-74
2022/12/04 06:39:49;;;;;;;50.25;23.88;;;0.00;99.90;;;;;;4976811;28;20077;-75
2022/12/04 06:42:16;;;;;;;52.20;23.40;;;0.00;99.90;;;;;;4988108;28;20044;-75
2022/12/04 06:44:43;;;;;;;60.67;25.27;;;0.00;99.90;;;;;;4985538;28;20054;-75
2022/12/04 06:47:09;;;;;;;55.38;24.60;;;0.00;99.90;;;;;;4987801;28;20049;-75
2022/12/04 06:49:36;;;;;;;53.47;25.38;;;0.00;99.90;;;;;;4981153;28;20053;-77
2022/12/04 06:52:03;;;;;;;51.90;21.65;;;-0.10;99.90;;;;;;4976358;28;20042;-77
2022/12/04 06:54:29;;;;;;;46.08;21.48;;;0.00;99.90;;;;;;4986548;28;20034;-74
2022/12/04 06:56:56;;;;;;;54.83;24.00;;;0.00;99.90;;;;;;4968840;28;20460;-75
2022/12/04 06:59:23;;;;;;;53.88;23.10;;;0.00;99.90;;;;;;4984741;28;20042;-75
2022/12/04 07:01:49;;;;;;;49.45;20.38;;;0.00;99.90;;;;;;4968340;28;20121;-77
2022/12/04 07:04:16;;;;;;;57.30;25.67;;;0.00;99.90;;;;;;4983091;28;20046;-77
2022/12/04 07:06:43;;;;;;;50.78;21.45;;;0.00;99.90;;;;;;4974720;28;20051;-77
2022/12/04 07:09:15;;;;;;;52.60;24.15;;;0.00;99.90;;;;;;4994599;28;20046;-77
2022/12/04 07:11:42;;;;;;;53.35;25.35;;;-0.10;99.90;;;;;;4979186;28;20046;-75
2022/12/04 07:14:10;;;;;;;54.67;24.00;;;-0.10;99.90;;;;;;4988506;28;20046;-75
2022/12/04 07:16:39;;;;;;;53.13;24.30;;;0.00;99.90;;;;;;4975973;28;20517;-75
2022/12/04 07:19:08;;;;;;;57.90;24.77;;;0.00;99.90;;;;;;4967480;28;20053;-75
2022/12/04 07:21:35;;;;;;;58.13;24.70;;;0.00;99.90;;;;;;4974467;28;20402;-75
2022/12/04 07:24:02;;;;;;;61.58;25.08;;;0.00;99.90;;;;;;4983378;28;20057;-75
2022/12/04 07:26:29;;;;;;;48.15;22.05;;;0.00;99.90;;;;;;4975194;28;20137;-75
2022/12/04 07:28:57;;;;;;;51.33;25.98;;;0.00;99.90;;;;;;4995611;28;20042;-75
2022/12/04 07:31:25;;;;;;;52.33;24.17;;;0.00;99.90;;;;;;4981349;28;20042;-75
2022/12/04 07:33:53;;;;;;;54.70;24.55;;;0.10;99.90;;;;;;4972391;28;20478;-76
2022/12/04 07:36:21;;;;;;;52.75;24.27;;;0.10;99.90;;;;;;4987831;28;20980;-75
2022/12/04 07:38:48;;;;;;;60.35;27.13;;;0.10;99.90;;;;;;4994161;28;20038;-76
2022/12/04 07:41:16;;;;;;;55.03;24.25;;;0.20;99.90;;;;;;4993183;28;20046;-75
2022/12/04 07:43:43;;;;;;;48.80;21.23;;;0.20;99.90;;;;;;4965810;28;20101;-75
2022/12/04 07:46:16;;;;;;;46.13;22.67;;;0.10;99.90;;;;;;4987514;28;20046;-75
2022/12/04 07:48:43;;;;;;;50.13;23.80;;;0.10;99.90;;;;;;4988787;28;20132;-75
2022/12/04 07:51:11;;;;;;;56.67;25.85;;;0.10;99.90;;;;;;4985433;28;20327;-75
2022/12/04 07:53:38;;;;;;;47.35;22.25;;;0.10;99.90;;;;;;4978901;28;20047;-75
2022/12/04 07:56:09;;;;;;;50.17;25.25;;;0.10;99.90;;;;;;4975083;28;20173;-75
2022/12/04 07:58:36;;;;;;;50.55;23.95;;;0.10;99.90;;;;;;4978069;28;20046;-76
2022/12/04 08:01:06;;;;;;;53.67;26.75;;;0.10;99.90;;;;;;4977305;28;20542;-75
2022/12/04 08:03:33;;;;;;;39.03;20.73;;;0.10;99.90;;;;;;4969270;28;20058;-76
2022/12/04 08:06:01;;;;;;;50.72;23.15;;;0.20;99.90;;;;;;4991565;28;20661;-75
2022/12/04 08:08:28;;;;;;;46.97;24.42;;;0.20;99.90;;;;;;4989363;28;20038;-76
2022/12/04 08:10:55;;;;;;;51.92;26.77;;;0.20;99.90;;;;;;4980518;28;20041;-76
2022/12/04 08:13:21;;;;;;;44.83;21.65;;;0.20;99.90;;;;;;4989059;28;20045;-75
2022/12/04 08:15:48;;;;;;;47.60;23.30;;;0.20;99.90;;;;;;4992995;28;20050;-75
2022/12/04 08:18:15;;;;;;;48.88;21.60;;;0.20;99.90;;;;;;4982234;28;20041;-75
2022/12/04 08:20:43;;;;;;;53.70;26.38;;;0.20;99.90;;;;;;4985422;28;20042;-75
2022/12/04 08:23:10;;;;;;;46.17;23.40;;;0.30;99.90;;;;;;4996557;28;20048;-75
2022/12/04 08:25:39;;;;;;;54.33;24.75;;;0.20;99.90;;;;;;4994227;28;20060;-75
2022/12/04 08:28:06;;;;;;;53.97;24.55;;;0.30;99.90;;;;;;4967166;28;20050;-76
2022/12/04 08:30:34;;;;;;;56.25;25.38;;;0.30;99.90;;;;;;4982546;28;20488;-75
2022/12/04 08:33:01;;;;;;;67.13;37.15;;;0.30;99.90;;;;;;4975541;28;20093;-75
2022/12/04 08:35:28;;;;;;;50.85;23.50;;;0.40;99.90;;;;;;4975199;28;20042;-75
2022/12/04 08:37:55;;;;;;;37.72;19.05;;;0.30;99.90;;;;;;4977426;28;20515;-75
2022/12/04 08:40:22;;;;;;;47.30;23.58;;;0.30;99.90;;;;;;4990766;28;20050;-76
2022/12/04 08:42:48;;;;;;;49.03;22.83;;;0.30;99.90;;;;;;4991048;28;20060;-75
2022/12/04 08:45:15;;;;;;;47.88;24.63;;;0.30;99.90;;;;;;4981839;28;20434;-75
2022/12/04 08:47:42;;;;;;;43.35;20.83;;;0.30;99.90;;;;;;4982673;28;20076;-75
2022/12/04 08:50:15;;;;;;;46.00;22.13;;;0.30;99.90;;;;;;4984944;28;20053;-75
2022/12/04 08:52:41;;;;;;;48.13;25.40;;;0.30;99.90;;;;;;5008642;22;20086;-71
2022/12/04 08:55:08;;;;;;;46.45;23.35;;;0.40;99.90;;;;;;4975331;28;20050;-71
2022/12/04 08:57:35;;;;;;;49.92;22.63;;;0.40;99.90;;;;;;4973986;28;20043;-71
2022/12/04 09:00:03;;;;;;;45.97;25.30;;;0.40;99.90;;;;;;4972324;28;20496;-72
2022/12/04 09:02:29;;;;;;;46.05;24.38;;;0.40;99.90;;;;;;4969806;28;20428;-71
2022/12/04 09:04:56;;;;;;;42.28;21.70;;;0.40;99.90;;;;;;4973647;28;20462;-70
2022/12/04 09:07:22;;;;;;;51.25;27.63;;;0.40;99.90;;;;;;5011136;23;20053;-72
2022/12/04 09:09:49;;;;;;;52.15;23.33;;;0.40;99.90;;;;;;4978082;28;20061;-70
2022/12/04 09:12:16;;;;;;;51.03;23.50;;;0.50;99.90;;;;;;4978330;28;20042;-71
2022/12/04 09:14:43;;;;;;;44.25;23.70;;;0.40;99.90;;;;;;4974886;28;20049;-70
2022/12/04 09:17:09;;;;;;;47.38;22.35;;;0.50;99.90;;;;;;4967511;28;20195;-71
2022/12/04 09:19:36;;;;;;;49.53;24.45;;;0.50;99.90;;;;;;4964997;28;20583;-70
2022/12/04 09:22:03;;;;;;;50.42;25.23;;;0.50;99.90;;;;;;4960840;28;20030;-71
2022/12/04 09:24:30;;;;;;;43.55;25.02;;;0.50;99.90;;;;;;4988902;28;20038;-70
2022/12/04 09:26:56;;;;;;;49.45;26.30;;;0.60;99.90;;;;;;4984816;28;20110;-71
2022/12/04 09:29:24;;;;;;;45.53;25.15;;;0.60;99.90;;;;;;4959107;28;20051;-70
2022/12/04 09:31:51;;;;;;;47.00;25.60;;;0.50;99.90;;;;;;4982361;28;20488;-72
2022/12/04 09:34:18;;;;;;;82.40;45.20;;;0.60;99.90;;;;;;4965663;28;20046;-70
2022/12/04 09:36:45;;;;;;;48.67;25.63;;;0.50;99.90;;;;;;4951982;28;20042;-70
2022/12/04 09:39:11;;;;;;;52.50;27.08;;;0.50;99.90;;;;;;4986182;28;20050;-69
2022/12/04 09:42:06;;;;;;;58.10;29.30;;;0.60;99.90;;;;;;4984438;28;20042;-70
2022/12/04 09:44:39;;;;;;;51.97;26.55;;;0.50;99.90;;;;;;4984030;28;20053;-70
2022/12/04 09:47:30;;;;;;;57.55;31.73;;;0.60;99.90;;;;;;4944440;28;20352;-69
2022/12/04 09:50:19;;;;;;;194.45;86.72;;;0.60;99.90;;;;;;4977429;28;20047;-71
2022/12/04 09:52:58;;;;;;;78.93;39.38;;;0.70;99.90;;;;;;4989803;28;20048;-72
2022/12/04 09:55:34;;;;;;;49.67;27.50;;;0.60;99.90;;;;;;4981198;28;20105;-71
2022/12/04 09:58:04;;;;;;;57.58;28.08;;;0.60;99.90;;;;;;4968135;28;20061;-69
2022/12/04 10:00:36;;;;;;;56.22;30.10;;;0.50;99.90;;;;;;4978054;28;20073;-71
2022/12/04 10:03:06;;;;;;;59.42;30.30;;;0.50;99.90;;;;;;4976079;28;20034;-70
2022/12/04 10:05:39;;;;;;;47.08;24.13;;;0.60;99.90;;;;;;4976869;28;20046;-70
2022/12/04 10:08:09;;;;;;;66.90;28.00;;;0.60;99.90;;;;;;4976447;28;20628;-73
2022/12/04 10:10:45;;;;;;;58.65;30.30;;;0.70;99.90;;;;;;4972840;28;20047;-70
2022/12/04 10:13:50;;;;;;;60.05;29.58;;;0.60;99.90;;;;;;4972241;28;20611;-71
2022/12/04 10:16:52;;;;;;;57.03;31.08;;;0.70;99.90;;;;;;4965409;28;20053;-71
2022/12/04 10:20:02;;;;;;;67.97;32.95;;;0.70;99.90;;;;;;4988719;28;20066;-70
2022/12/04 10:22:38;;;;;;;59.72;30.10;;;0.70;99.90;;;;;;4974205;28;20553;-71
2022/12/04 10:25:21;;;;;;;67.78;32.70;;;0.70;99.90;;;;;;4978999;28;20046;-70
2022/12/04 10:28:05;;;;;;;76.53;35.03;;;0.70;99.90;;;;;;4982736;28;20615;-72
2022/12/04 10:30:35;;;;;;;72.50;32.78;;;0.70;99.90;;;;;;4981380;28;20050;-70
2022/12/04 10:33:34;;;;;;;64.53;31.92;;;0.60;99.90;;;;;;4982900;28;20050;-72
2022/12/04 10:36:02;;;;;;;71.25;34.00;;;0.80;99.90;;;;;;4917589;28;20049;-69
2022/12/04 10:38:57;;;;;;;67.55;31.27;;;0.80;99.90;;;;;;4956710;28;20054;-71
2022/12/04 10:41:29;;;;;;;69.47;34.00;;;0.70;99.90;;;;;;4953906;28;20042;-70
2022/12/04 10:43:56;;;;;;;67.63;32.22;;;0.70;99.90;;;;;;4968236;28;20129;-71
2022/12/04 10:46:26;;;;;;;62.63;31.17;;;0.70;99.90;;;;;;4965203;28;20554;-69
2022/12/04 10:49:05;;;;;;;62.38;31.73;;;0.80;99.90;;;;;;4985775;28;20053;-70
2022/12/04 10:51:39;;;;;;;64.85;30.50;;;0.70;99.90;;;;;;4976649;28;20050;-69
2022/12/04 10:54:20;;;;;;;60.30;31.53;;;0.80;99.90;;;;;;4983297;28;20046;-70
2022/12/04 10:56:52;;;;;;;59.20;32.75;;;0.80;99.90;;;;;;4966260;28;20296;-72
2022/12/04 10:59:19;;;;;;;69.93;37.95;;;0.80;99.90;;;;;;4987471;28;20058;-72
2022/12/04 11:01:46;;;;;;;87.55;42.95;;;0.80;99.90;;;;;;4962420;28;20048;-71
2022/12/04 11:04:25;;;;;;;76.50;37.90;;;0.90;99.90;;;;;;4983154;28;20133;-70
2022/12/04 11:07:17;;;;;;;54.85;28.00;;;1.00;99.90;;;;;;4976085;28;20066;-70
2022/12/04 11:09:57;;;;;;;77.80;40.15;;;0.90;99.90;;;;;;4990786;28;20131;-70
2022/12/04 11:12:24;;;;;;;57.17;28.83;;;0.80;99.90;;;;;;4964150;28;20110;-72
2022/12/04 11:15:00;;;;;;;90.75;47.10;;;0.80;99.90;;;;;;4978656;28;20039;-73
2022/12/04 11:17:27;;;;;;;110.55;54.08;;;0.80;99.90;;;;;;4979772;28;20492;-73
2022/12/04 11:20:07;;;;;;;80.15;39.08;;;0.80;99.90;;;;;;4976860;28;20061;-72
2022/12/04 11:23:06;;;;;;;161.00;83.70;;;0.80;99.90;;;;;;4961966;28;20045;-72
2022/12/04 11:25:43;;;;;;;116.22;61.97;;;0.80;99.90;;;;;;4980780;28;20034;-73
2022/12/04 11:28:17;;;;;;;89.95;52.83;;;0.90;99.90;;;;;;4984713;28;20110;-69
2022/12/04 11:31:04;;;;;;;75.40;40.45;;;0.80;99.90;;;;;;4967266;28;20030;-71
2022/12/04 11:33:36;;;;;;;76.78;37.25;;;0.90;99.90;;;;;;4988078;28;20061;-71
2022/12/04 11:36:16;;;;;;;77.55;41.30;;;0.80;99.90;;;;;;4965623;28;20046;-68
2022/12/04 11:38:43;;;;;;;77.85;44.47;;;0.80;99.90;;;;;;4963556;28;20330;-69
2022/12/04 11:41:27;;;;;;;55.05;30.25;;;0.80;99.90;;;;;;4970055;28;20040;-69
2022/12/04 11:43:55;;;;;;;59.60;29.17;;;0.80;99.90;;;;;;4979798;28;20103;-69
2022/12/04 11:46:29;;;;;;;74.05;35.70;;;0.80;99.90;;;;;;4975270;28;20108;-73
2022/12/04 11:48:57;;;;;;;79.93;40.22;;;0.90;99.90;;;;;;4976066;28;20050;-72
2022/12/04 11:51:33;;;;;;;74.20;34.35;;;0.80;99.90;;;;;;4967496;28;20060;-72
2022/12/04 11:54:38;;;;;;;48.83;24.90;;;0.80;99.90;;;;;;4966116;28;20443;-71
2022/12/04 11:57:20;;;;;;;87.60;40.30;;;0.80;99.90;;;;;;4941384;28;20419;-70
2022/12/04 12:00:16;;;;;;;82.28;38.03;;;0.70;99.90;;;;;;4962797;28;20412;-72
2022/12/04 12:03:10;;;;;;;81.47;42.10;;;0.80;99.90;;;;;;4964507;28;20050;-73
2022/12/04 12:06:04;;;;;;;85.00;39.45;;;0.80;99.90;;;;;;4968764;28;20081;-72
2022/12/04 12:08:49;;;;;;;60.53;30.27;;;0.80;99.90;;;;;;4968446;28;20047;-69
2022/12/04 12:11:29;;;;;;;70.97;36.73;;;0.80;99.90;;;;;;4983046;28;20050;-73
2022/12/04 12:14:20;;;;;;;76.53;42.28;;;0.80;99.90;;;;;;4965561;28;20042;-72
2022/12/04 12:17:22;;;;;;;60.10;30.95;;;0.80;99.90;;;;;;4968601;28;20038;-72
2022/12/04 12:20:21;;;;;;;72.13;35.67;;;0.90;99.90;;;;;;4959270;28;20421;-72
2022/12/04 12:22:57;;;;;;;66.65;32.55;;;0.90;99.90;;;;;;4966018;28;20035;-68
2022/12/04 12:25:37;;;;;;;67.25;30.02;;;0.90;99.90;;;;;;4973197;28;20078;-70
2022/12/04 12:28:28;;;;;;;63.90;33.42;;;0.90;99.90;;;;;;4970918;28;20440;-73
2022/12/04 12:31:06;;;;;;;67.55;34.72;;;0.90;99.90;;;;;;4962532;28;20627;-70
2022/12/04 12:33:43;;;;;;;72.55;35.83;;;0.90;99.90;;;;;;4969676;28;20122;-73
2022/12/04 12:36:12;;;;;;;77.43;38.95;;;0.90;99.90;;;;;;4942084;28;20389;-72
2022/12/04 12:38:52;;;;;;;79.93;37.90;;;0.90;99.90;;;;;;4964158;28;20034;-73
2022/12/04 12:41:47;;;;;;;81.18;41.95;;;1.00;99.90;;;;;;4965454;28;20050;-73
2022/12/04 12:44:20;;;;;;;73.93;37.17;;;0.80;99.90;;;;;;4956272;28;20043;-72
2022/12/04 12:47:04;;;;;;;73.53;34.23;;;0.80;99.90;;;;;;4967276;28;20046;-72
2022/12/04 12:49:44;;;;;;;65.40;34.58;;;0.80;99.90;;;;;;4973007;28;20058;-70
2022/12/04 12:52:18;;;;;;;74.60;40.10;;;0.90;99.90;;;;;;4969054;28;20348;-72
2022/12/04 12:54:56;;;;;;;71.65;37.28;;;0.90;99.90;;;;;;4980793;28;20526;-72
2022/12/04 12:57:36;;;;;;;69.35;35.22;;;0.80;99.90;;;;;;4984149;28;20587;-71
2022/12/04 13:00:15;;;;;;;72.53;34.58;;;0.80;99.90;;;;;;4977899;28;20039;-69
2022/12/04 13:02:44;;;;;;;68.03;33.58;;;0.90;99.90;;;;;;4979360;28;20042;-71
2022/12/04 13:05:15;;;;;;;59.67;33.15;;;0.90;99.90;;;;;;4969443;28;20038;-71
2022/12/04 13:08:08;;;;;;;66.47;34.75;;;1.00;99.90;;;;;;4975991;28;20134;-70
2022/12/04 13:10:46;;;;;;;61.25;31.33;;;1.00;99.90;;;;;;4971662;28;20137;-72